createdAt,value
2018-02-18T10:40:33.534Z,24.23
2018-02-18T10:41:36.904Z,24.23
2018-02-18T10:42:40.320Z,24.23
2018-02-18T10:43:43.921Z,23.26
2018-02-18T10:44:47.389Z,24.23
2018-02-18T10:45:50.944Z,24.23
2018-02-18T10:46:54.594Z,24.23
2018-02-18T10:47:58.184Z,24.23
2018-02-18T10:49:01.795Z,24.23
2018-02-18T10:50:05.208Z,24.23
2018-02-18T10:51:08.709Z,24.18
2018-02-18T10:52:12.092Z,24.18
2018-02-18T10:53:16.120Z,24.23
2018-02-18T10:54:20.344Z,24.23
2018-02-18T10:55:23.731Z,24.18
2018-02-18T10:56:27.167Z,24.18
2018-02-18T10:57:30.578Z,24.23
2018-02-18T10:58:34.015Z,24.18
2018-02-18T11:10:29.105Z,24.18
2018-02-18T11:11:32.363Z,24.18
2018-02-18T11:12:35.486Z,24.18
2018-02-18T11:13:38.742Z,24.18
2018-02-18T11:14:41.910Z,24.18
2018-02-18T11:15:45.197Z,24.18
2018-02-18T11:16:48.333Z,24.18
2018-02-18T11:17:56.855Z,24.18
2018-02-18T11:18:59.991Z,24.18
2018-02-18T11:20:03.137Z,24.18
2018-02-18T11:21:06.377Z,24.18
2018-02-18T11:22:09.417Z,24.18
2018-02-18T11:23:12.473Z,24.18
2018-02-18T11:24:15.487Z,24.18
2018-02-18T11:25:19.198Z,24.18
2018-02-18T11:26:22.240Z,24.18
2018-02-18T11:27:25.301Z,24.18
2018-02-18T11:28:28.353Z,24.18
2018-02-18T11:29:31.388Z,24.18
2018-02-18T11:30:34.436Z,24.18
2018-02-18T11:31:37.549Z,24.18
2018-02-18T11:32:40.582Z,24.18
2018-02-18T11:33:43.588Z,24.18
2018-02-18T11:34:46.630Z,23.26
2018-02-18T11:35:49.644Z,23.30
2018-02-18T11:36:52.732Z,23.30
2018-02-18T11:37:55.823Z,22.37
2018-02-18T11:38:58.970Z,22.37
2018-02-18T11:40:02.043Z,22.37
2018-02-18T11:41:05.298Z,22.37
2018-02-18T11:42:09.149Z,22.41
2018-02-18T11:43:12.206Z,22.41
2018-02-18T11:44:15.228Z,22.46
2018-02-18T11:45:18.244Z,22.41
2018-02-18T11:46:21.285Z,22.41
2018-02-18T11:47:24.311Z,22.41
2018-02-18T11:48:27.330Z,22.37
2018-02-18T11:49:30.376Z,22.37
2018-02-18T11:50:33.396Z,23.35
2018-02-18T11:51:36.432Z,23.30
2018-02-18T11:52:39.532Z,23.30
2018-02-18T11:53:42.554Z,23.30
2018-02-18T11:54:45.588Z,23.30
2018-02-18T11:55:48.689Z,23.26
2018-02-18T11:56:51.850Z,23.26
2018-02-18T11:57:54.896Z,23.26
2018-02-18T11:58:57.900Z,24.23
2018-02-18T12:00:01.057Z,23.26
2018-02-18T12:01:04.661Z,24.18
2018-02-18T12:02:07.682Z,24.18
2018-02-18T12:03:10.726Z,24.18
2018-02-18T12:04:13.731Z,24.18
2018-02-18T12:05:16.773Z,24.18
2018-02-18T12:06:19.788Z,24.18
2018-02-18T12:07:22.851Z,24.18
2018-02-18T12:08:25.888Z,24.18
2018-02-18T12:09:29.932Z,24.18
2018-02-18T12:10:32.972Z,25.10
2018-02-18T12:11:36.159Z,25.10
2018-02-18T12:12:39.237Z,25.10
2018-02-18T12:13:42.284Z,25.10
2018-02-18T12:14:45.295Z,25.10
2018-02-18T12:15:48.371Z,25.10
2018-02-18T12:16:51.435Z,25.10
2018-02-18T12:17:54.540Z,25.10
2018-02-18T12:18:57.668Z,25.10
2018-02-18T12:20:00.772Z,25.10
2018-02-18T12:21:04.439Z,25.10
2018-02-18T12:22:07.644Z,25.06
2018-02-18T12:23:10.639Z,25.06
2018-02-18T12:24:13.797Z,25.06
2018-02-18T12:25:16.877Z,25.06
2018-02-18T12:26:19.897Z,25.06
2018-02-18T12:27:22.899Z,25.06
2018-02-18T12:28:25.940Z,25.06
2018-02-18T12:29:28.950Z,25.06
2018-02-18T12:30:32.106Z,25.06
2018-02-18T12:31:35.106Z,25.06
2018-02-18T12:32:38.108Z,25.06
2018-02-18T12:33:41.162Z,25.06
2018-02-18T12:34:44.202Z,25.06
2018-02-18T12:35:47.230Z,25.06
2018-02-18T12:36:50.259Z,25.06
2018-02-18T12:37:53.291Z,25.10
2018-02-18T12:38:56.357Z,25.06
2018-02-18T12:39:59.372Z,25.10
2018-02-18T12:41:02.426Z,25.10
2018-02-18T12:42:05.869Z,25.06
2018-02-18T12:43:08.893Z,25.10
2018-02-18T12:44:11.912Z,24.18
2018-02-18T12:45:14.950Z,24.18
2018-02-18T12:46:18.007Z,24.18
2018-02-18T12:47:21.443Z,24.18
2018-02-18T12:48:24.452Z,24.18
2018-02-18T12:49:27.483Z,24.18
2018-02-18T12:50:30.498Z,24.18
2018-02-18T12:51:33.493Z,24.18
2018-02-18T12:52:36.536Z,24.18
2018-02-18T12:53:39.549Z,24.18
2018-02-18T12:54:42.842Z,24.23
2018-02-18T12:55:45.919Z,24.18
2018-02-18T12:56:48.944Z,24.18
2018-02-18T12:57:52.013Z,24.23
2018-02-18T12:58:55.022Z,24.23
2018-02-18T12:59:58.039Z,24.23
2018-02-18T13:01:01.093Z,24.23
2018-02-18T13:02:04.429Z,24.23
2018-02-18T13:03:07.445Z,24.23
2018-02-18T13:04:10.457Z,24.23
2018-02-18T13:05:13.484Z,24.23
2018-02-18T13:06:16.561Z,24.23
2018-02-18T13:07:19.648Z,24.23
2018-02-18T13:08:22.674Z,23.26
2018-02-18T13:09:25.708Z,23.26
2018-02-18T13:10:28.743Z,24.23
2018-02-18T13:11:32.135Z,24.23
2018-02-18T13:12:35.175Z,23.26
2018-02-18T13:13:38.203Z,23.26
2018-02-18T13:14:41.220Z,23.26
2018-02-18T13:15:44.248Z,23.26
2018-02-18T13:16:47.333Z,23.26
2018-02-18T13:17:51.238Z,23.26
2018-02-18T13:18:54.377Z,23.26
2018-02-18T13:19:57.427Z,23.26
2018-02-18T13:21:00.831Z,23.26
2018-02-18T13:22:04.300Z,24.23
2018-02-18T13:23:07.338Z,24.23
2018-02-18T13:24:10.388Z,23.26
2018-02-18T13:25:13.527Z,24.23
2018-02-18T13:26:19.186Z,24.23
2018-02-18T13:27:22.224Z,24.23
2018-02-18T13:28:25.951Z,24.23
2018-02-18T13:29:28.980Z,24.18
2018-02-18T13:30:31.995Z,24.18
2018-02-18T13:31:34.996Z,24.18
2018-02-18T13:32:38.786Z,24.18
2018-02-18T13:33:43.154Z,24.18
2018-02-18T13:34:46.967Z,24.18
2018-02-18T13:35:50.455Z,24.18
2018-02-18T13:36:53.459Z,24.18
2018-02-18T13:37:57.092Z,24.18
2018-02-18T13:39:00.781Z,24.18
2018-02-18T13:40:05.077Z,24.18
2018-02-18T13:41:08.114Z,24.18
2018-02-18T13:42:11.236Z,24.18
2018-02-18T13:43:15.298Z,24.18
2018-02-18T13:44:18.285Z,24.18
2018-02-18T13:45:23.119Z,24.18
2018-02-18T13:46:26.160Z,24.18
2018-02-18T13:47:29.183Z,24.18
2018-02-18T13:48:32.239Z,24.18
2018-02-18T13:49:35.840Z,24.18
2018-02-18T13:50:38.862Z,24.18
2018-02-18T13:51:41.952Z,24.18
2018-02-18T13:52:48.767Z,24.18
2018-02-18T13:53:51.861Z,24.18
2018-02-18T13:54:57.119Z,24.18
2018-02-18T13:56:00.173Z,24.18
2018-02-18T13:57:06.333Z,24.18
2018-02-18T13:58:09.476Z,24.18
2018-02-18T13:59:12.729Z,24.18
2018-02-18T14:00:16.553Z,24.18
2018-02-18T14:01:19.567Z,24.18
2018-02-18T14:02:22.570Z,24.18
2018-02-18T14:03:27.291Z,24.18
2018-02-18T14:04:30.376Z,24.18
2018-02-18T14:05:33.723Z,24.18
2018-02-18T14:06:37.450Z,24.18
2018-02-18T14:07:40.687Z,24.18
2018-02-18T14:08:44.218Z,24.18
2018-02-18T14:09:49.172Z,24.18
2018-02-18T14:10:52.497Z,24.18
2018-02-18T14:11:55.579Z,24.23
2018-02-18T14:12:58.630Z,24.18
2018-02-18T14:14:02.609Z,24.18
2018-02-18T14:15:06.686Z,24.18
2018-02-18T14:16:12.309Z,24.18
2018-02-18T14:17:15.957Z,24.18
2018-02-18T14:18:19.003Z,24.23
2018-02-18T14:19:22.014Z,24.23
2018-02-18T14:20:25.061Z,24.23
2018-02-18T14:21:29.375Z,24.23
2018-02-18T14:22:32.506Z,24.23
2018-02-18T14:23:35.680Z,24.18
2018-02-18T14:24:38.699Z,24.23
2018-02-18T14:25:42.107Z,24.23
2018-02-18T14:26:47.816Z,23.26
2018-02-18T14:27:56.147Z,24.23
2018-02-18T14:28:59.406Z,24.23
2018-02-18T14:30:04.282Z,24.23
2018-02-18T14:31:07.806Z,24.23
2018-02-18T14:32:10.843Z,24.23
2018-02-18T14:33:13.943Z,24.18
2018-02-18T14:34:17.487Z,24.18
2018-02-18T14:35:20.471Z,24.18
2018-02-18T14:36:24.034Z,24.18
2018-02-18T14:37:27.129Z,24.18
2018-02-18T14:38:30.153Z,24.18
2018-02-18T14:39:34.073Z,24.18
2018-02-18T14:40:37.836Z,24.18
2018-02-18T14:41:40.913Z,24.18
2018-02-18T14:42:44.018Z,24.18
2018-02-18T14:43:47.027Z,24.18
2018-02-18T14:44:50.449Z,24.18
2018-02-18T14:45:55.734Z,24.18
2018-02-18T14:46:58.743Z,24.18
2018-02-18T14:48:01.832Z,24.18
2018-02-18T14:49:06.613Z,24.18
2018-02-18T14:50:09.626Z,24.18
2018-02-18T14:51:13.089Z,24.18
2018-02-18T14:52:18.041Z,24.18
2018-02-18T14:53:21.081Z,24.18
2018-02-18T14:54:24.119Z,24.18
2018-02-18T14:55:27.272Z,24.18
2018-02-18T14:56:30.414Z,24.18
2018-02-18T14:57:34.154Z,24.18
2018-02-18T14:58:37.287Z,24.18
2018-02-18T14:59:40.364Z,24.18
2018-02-18T15:00:43.452Z,24.18
2018-02-18T15:01:46.957Z,24.18
2018-02-18T15:02:52.980Z,24.18
2018-02-18T15:03:56.198Z,24.18
2018-02-18T15:04:59.194Z,24.18
2018-02-18T15:06:02.291Z,24.18
2018-02-18T15:07:06.173Z,24.18
2018-02-18T15:08:09.265Z,24.18
2018-02-18T15:09:12.521Z,24.18
2018-02-18T15:10:17.147Z,24.18
2018-02-18T15:11:22.920Z,24.18
2018-02-18T15:12:26.684Z,24.18
2018-02-18T15:13:32.083Z,24.18
2018-02-18T15:14:36.195Z,24.18
2018-02-18T15:15:39.229Z,24.18
2018-02-18T15:16:42.267Z,24.18
2018-02-18T15:17:45.969Z,24.18
2018-02-18T15:18:49.902Z,24.18
2018-02-18T15:19:52.965Z,24.18
2018-02-18T15:20:57.366Z,24.18
2018-02-18T15:22:00.434Z,24.18
2018-02-18T15:23:04.153Z,24.18
2018-02-18T15:24:07.664Z,24.18
2018-02-18T15:25:10.668Z,24.18
2018-02-18T15:26:15.183Z,24.18
2018-02-18T15:27:18.202Z,24.18
2018-02-18T15:28:21.253Z,24.18
2018-02-18T15:29:24.300Z,24.18
2018-02-18T15:30:27.386Z,24.18
2018-02-18T15:31:30.422Z,24.18
2018-02-18T15:32:34.294Z,24.18
2018-02-18T15:33:37.302Z,24.18
2018-02-18T15:34:40.356Z,24.23
2018-02-18T15:35:43.365Z,24.18
2018-02-18T15:36:46.730Z,24.23
2018-02-18T15:37:49.806Z,24.23
2018-02-18T15:38:52.936Z,24.23
2018-02-18T15:39:56.853Z,24.23
2018-02-18T15:41:00.045Z,24.23
2018-02-18T15:42:03.121Z,24.23
2018-02-18T15:43:06.668Z,24.23
2018-02-18T15:44:09.748Z,24.23
2018-02-18T15:45:12.802Z,23.26
2018-02-18T15:46:15.946Z,24.23
2018-02-18T15:47:18.981Z,23.26
2018-02-18T15:48:22.007Z,23.26
2018-02-18T15:49:25.604Z,24.23
2018-02-18T15:50:28.693Z,23.26
2018-02-18T15:51:31.784Z,23.26
2018-02-18T15:52:35.109Z,23.26
2018-02-18T15:53:38.227Z,23.26
2018-02-18T15:54:41.255Z,23.26
2018-02-18T15:55:45.076Z,23.26
2018-02-18T15:56:48.136Z,23.26
2018-02-18T15:57:53.467Z,23.26
2018-02-18T15:58:56.567Z,23.26
2018-02-18T15:59:59.582Z,23.26
2018-02-18T16:01:02.696Z,23.26
2018-02-18T16:02:07.188Z,23.30
2018-02-18T16:03:10.207Z,23.30
2018-02-18T16:04:13.434Z,23.30
2018-02-18T16:05:16.551Z,23.30
2018-02-18T16:06:19.631Z,23.30
2018-02-18T16:07:22.734Z,23.30
2018-02-18T16:08:25.767Z,23.30
2018-02-18T16:09:29.480Z,23.30
2018-02-18T16:10:32.482Z,23.30
2018-02-18T16:11:36.646Z,23.30
2018-02-18T16:12:39.659Z,23.30
2018-02-18T16:13:42.775Z,23.30
2018-02-18T16:14:46.218Z,23.30
2018-02-18T16:15:49.258Z,23.30
2018-02-18T16:16:52.473Z,23.30
2018-02-18T16:17:55.479Z,23.30
2018-02-18T16:18:58.516Z,23.30
2018-02-18T16:20:01.538Z,23.30
2018-02-18T16:21:06.263Z,23.30
2018-02-18T16:22:09.289Z,23.30
2018-02-18T16:23:12.349Z,23.30
2018-02-18T16:24:15.354Z,23.30
2018-02-18T16:25:18.822Z,22.33
2018-02-18T16:26:21.835Z,23.30
2018-02-18T16:27:25.519Z,23.30
2018-02-18T16:28:28.562Z,23.30
2018-02-18T16:29:31.564Z,23.30
2018-02-18T16:30:34.581Z,23.30
2018-02-18T16:31:37.634Z,23.30
2018-02-18T16:32:40.695Z,22.33
2018-02-18T16:33:44.354Z,23.30
2018-02-18T16:34:47.430Z,23.30
2018-02-18T16:35:50.552Z,22.33
2018-02-18T16:36:53.786Z,23.30
2018-02-18T16:37:57.377Z,23.30
2018-02-18T16:39:00.633Z,23.30
2018-02-18T16:40:03.962Z,23.30
2018-02-18T16:41:07.033Z,23.30
2018-02-18T16:42:12.508Z,23.30
2018-02-18T16:43:15.989Z,23.30
2018-02-18T16:44:19.063Z,22.33
2018-02-18T16:45:22.125Z,23.30
2018-02-18T16:46:26.504Z,22.37
2018-02-18T16:47:29.588Z,22.33
2018-02-18T16:48:32.807Z,23.30
2018-02-18T16:49:36.704Z,23.30
2018-02-18T16:50:39.721Z,22.33
2018-02-18T16:51:43.153Z,22.33
2018-02-18T16:52:47.857Z,23.30
2018-02-18T16:53:50.936Z,23.35
2018-02-18T16:54:55.370Z,23.30
2018-02-18T16:55:58.411Z,22.33
2018-02-18T16:57:01.442Z,23.35
2018-02-18T16:58:06.583Z,22.33
2018-02-18T16:59:09.652Z,23.35
